createdAt,value
2018-09-20T00:01:47.996Z,98593.17
2018-09-20T00:04:17.255Z,98593.06
2018-09-20T00:06:46.426Z,98593.59
2018-09-20T00:09:15.567Z,98591.68
2018-09-20T00:11:44.862Z,98593.52
2018-09-20T00:14:13.940Z,98594.02
2018-09-20T00:16:43.184Z,98594.70
2018-09-20T00:19:12.264Z,98596.72
2018-09-20T00:21:41.600Z,98592.92
2018-09-20T00:24:10.909Z,98588.05
2018-09-20T00:26:40.355Z,98592.05
2018-09-20T00:29:09.868Z,98593.00
2018-09-20T00:31:39.096Z,98593.93
2018-09-20T00:34:08.352Z,98592.55
2018-09-20T00:36:37.601Z,98596.51
2018-09-20T00:39:11.490Z,98594.70
2018-09-20T00:41:40.647Z,98593.27
2018-09-20T00:44:10.282Z,98593.35
2018-09-20T00:46:39.380Z,98590.69
2018-09-20T00:49:08.419Z,98591.72
2018-09-20T00:51:37.702Z,98584.58
2018-09-20T00:54:06.947Z,98587.09
2018-09-20T00:56:36.263Z,98585.38
2018-09-20T00:59:05.736Z,98577.78
2018-09-20T01:01:34.749Z,98580.97
2018-09-20T01:04:03.839Z,98576.48
2018-09-20T01:06:33.124Z,98576.69
2018-09-20T01:09:02.478Z,98575.59
2018-09-20T01:11:31.997Z,98580.34
2018-09-20T01:14:01.352Z,98578.66
2018-09-20T01:16:30.578Z,98575.34
2018-09-20T01:18:59.561Z,98573.53
2018-09-20T01:21:28.694Z,98572.84
2018-09-20T01:23:58.137Z,98570.03
2018-09-20T01:26:27.515Z,98569.72
2018-09-20T01:28:56.872Z,98563.51
2018-09-20T01:31:26.075Z,98571.39
2018-09-20T01:33:55.327Z,98566.53
2018-09-20T01:36:24.617Z,98566.77
2018-09-20T01:38:53.517Z,98571.54
2018-09-20T01:41:22.917Z,98572.69
2018-09-20T01:43:52.137Z,98575.95
2018-09-20T01:46:21.455Z,98576.77
2018-09-20T01:48:50.708Z,98570.46
2018-09-20T01:51:20.179Z,98561.80
2018-09-20T01:53:49.300Z,98568.94
2018-09-20T01:56:18.291Z,98566.96
2018-09-20T01:58:47.555Z,98564.64
2018-09-20T02:01:16.588Z,98565.19
2018-09-20T02:03:46.005Z,98562.70
2018-09-20T02:06:15.338Z,98558.29
2018-09-20T02:08:44.718Z,98559.31
2018-09-20T02:11:14.091Z,98557.93
2018-09-20T02:13:43.600Z,98550.34
2018-09-20T02:16:13.033Z,98550.97
2018-09-20T02:18:42.313Z,98542.16
2018-09-20T02:21:11.645Z,98543.48
2018-09-20T02:23:40.952Z,98547.25
2018-09-20T02:26:10.113Z,98543.50
2018-09-20T02:28:39.349Z,98542.80
2018-09-20T02:31:08.643Z,98546.31
2018-09-20T02:33:37.786Z,98544.42
2018-09-20T02:36:06.723Z,98550.57
2018-09-20T02:38:36.163Z,98547.45
2018-09-20T02:41:05.275Z,98544.13
2018-09-20T02:43:34.695Z,98547.76
2018-09-20T02:46:03.936Z,98556.60
2018-09-20T02:48:33.105Z,98560.13
2018-09-20T02:51:02.103Z,98562.52
2018-09-20T02:53:31.353Z,98560.75
2018-09-20T02:56:00.449Z,98563.59
2018-09-20T02:58:30.060Z,98568.48
2018-09-20T03:00:59.456Z,98570.82
2018-09-20T03:03:28.703Z,98569.44
2018-09-20T03:05:58.109Z,98575.06
2018-09-20T03:08:27.404Z,98569.63
2018-09-20T03:10:56.536Z,98567.05
2018-09-20T03:13:25.700Z,98572.01
2018-09-20T03:15:54.841Z,98574.69
2018-09-20T03:18:24.187Z,98577.54
2018-09-20T03:20:53.531Z,98575.19
2018-09-20T03:23:22.787Z,98575.81
2018-09-20T03:25:52.048Z,98574.48
2018-09-20T03:28:21.343Z,98570.65
2018-09-20T03:30:51.055Z,98567.70
2018-09-20T03:33:20.451Z,98569.14
2018-09-20T03:35:49.379Z,98567.90
2018-09-20T03:38:18.527Z,98565.03
2018-09-20T03:40:47.675Z,98565.96
2018-09-20T03:43:16.880Z,98575.38
2018-09-20T03:45:45.836Z,98574.06
2018-09-20T03:48:15.175Z,98575.08
2018-09-20T03:50:44.053Z,98574.35
2018-09-20T03:53:13.564Z,98574.23
2018-09-20T03:55:42.755Z,98576.06
2018-09-20T03:58:12.223Z,98573.31
2018-09-20T04:00:41.405Z,98577.34
2018-09-20T04:03:10.560Z,98573.70
2018-09-20T04:05:39.540Z,98580.16
2018-09-20T04:08:08.853Z,98582.56
2018-09-20T04:10:38.192Z,98583.37
2018-09-20T04:13:07.303Z,98582.17
2018-09-20T04:15:36.490Z,98580.11
2018-09-20T04:18:05.792Z,98581.48
2018-09-20T04:20:35.090Z,98582.61
2018-09-20T04:23:04.586Z,98578.59
2018-09-20T04:25:33.539Z,98579.84
2018-09-20T04:28:02.942Z,98585.33
2018-09-20T04:30:31.839Z,98585.33
2018-09-20T04:33:01.160Z,98589.14
2018-09-20T04:35:30.583Z,98591.36
2018-09-20T04:37:59.707Z,98595.56
2018-09-20T04:40:29.144Z,98587.72
2018-09-20T04:42:58.528Z,98587.08
2018-09-20T04:45:27.729Z,98581.95
2018-09-20T04:47:56.764Z,98581.05
2018-09-20T04:50:25.660Z,98577.16
2018-09-20T04:52:54.949Z,98584.89
2018-09-20T04:55:24.300Z,98578.39
2018-09-20T04:57:53.611Z,98575.67
2018-09-20T05:00:22.957Z,98576.55
2018-09-20T05:02:52.247Z,98577.68
2018-09-20T05:05:21.416Z,98579.20
2018-09-20T05:07:50.719Z,98579.73
2018-09-20T05:10:20.046Z,98581.88
2018-09-20T05:12:49.403Z,98583.73
2018-09-20T05:15:18.748Z,98586.66
2018-09-20T05:17:48.149Z,98585.63
2018-09-20T05:20:17.590Z,98585.90
2018-09-20T05:22:46.965Z,98589.94
2018-09-20T05:25:16.124Z,98591.66
2018-09-20T05:27:45.400Z,98593.99
2018-09-20T05:30:14.369Z,98597.30
2018-09-20T05:32:43.683Z,98598.02
2018-09-20T05:35:12.912Z,98599.51
2018-09-20T05:37:42.139Z,98592.51
2018-09-20T05:40:11.088Z,98594.83
2018-09-20T05:42:40.218Z,98593.66
2018-09-20T05:45:09.519Z,98600.41
2018-09-20T05:47:38.889Z,98601.13
2018-09-20T05:50:08.273Z,98599.62
2018-09-20T05:52:37.498Z,98597.92
2018-09-20T05:55:07.081Z,98597.17
2018-09-20T05:57:36.236Z,98596.41
2018-09-20T06:00:05.436Z,98601.22
2018-09-20T06:02:34.629Z,98601.82
2018-09-20T06:05:03.958Z,98599.21
2018-09-20T06:07:33.259Z,98608.45
2018-09-20T06:10:02.583Z,98605.15
2018-09-20T06:12:31.716Z,98603.97
2018-09-20T06:15:00.590Z,98607.22
2018-09-20T06:17:29.741Z,98597.06
2018-09-20T06:19:59.130Z,98595.83
2018-09-20T06:22:28.571Z,98594.25
2018-09-20T06:24:57.735Z,98592.69
2018-09-20T06:27:26.936Z,98590.92
2018-09-20T06:29:56.296Z,98594.91
2018-09-20T06:32:25.756Z,98601.22
2018-09-20T06:34:54.903Z,98598.82
2018-09-20T06:37:23.992Z,98597.53
2018-09-20T06:39:53.195Z,98600.43
2018-09-20T06:42:22.360Z,98604.08
2018-09-20T06:44:51.746Z,98600.42
2018-09-20T06:47:20.801Z,98603.22
2018-09-20T06:49:50.160Z,98602.10
2018-09-20T06:52:19.039Z,98593.22
2018-09-20T06:54:48.198Z,98592.63
2018-09-20T06:57:17.557Z,98595.77
2018-09-20T06:59:46.947Z,98593.00
2018-09-20T07:02:16.204Z,98594.70
2018-09-20T07:04:45.402Z,98597.34
2018-09-20T07:07:14.419Z,98591.00
2018-09-20T07:09:43.726Z,98594.91
2018-09-20T07:12:13.006Z,98601.34
2018-09-20T07:14:42.187Z,98602.20
2018-09-20T07:17:11.625Z,98601.67
2018-09-20T07:19:40.765Z,98604.75
2018-09-20T07:22:09.769Z,98605.50
2018-09-20T07:24:38.981Z,98610.06
2018-09-20T07:27:08.493Z,98618.47
2018-09-20T07:29:37.613Z,98615.07
2018-09-20T07:32:06.730Z,98613.23
2018-09-20T07:34:36.115Z,98610.77
2018-09-20T07:37:05.328Z,98614.95
2018-09-20T07:39:34.553Z,98607.39
2018-09-20T07:42:03.879Z,98607.11
2018-09-20T07:44:33.099Z,98606.06
2018-09-20T07:47:02.288Z,98604.11
2018-09-20T07:49:31.678Z,98603.20
2018-09-20T07:52:00.951Z,98597.06
2018-09-20T07:54:30.051Z,98597.43
2018-09-20T07:59:57.374Z,98603.89
2018-09-20T08:02:26.611Z,98600.96
2018-09-20T08:04:55.665Z,98590.49
2018-09-20T08:07:24.707Z,98595.48
2018-09-20T08:09:53.789Z,98593.73
2018-09-20T08:12:23.056Z,98595.90
2018-09-20T08:14:52.400Z,98596.73
2018-09-20T08:17:21.424Z,98594.61
2018-09-20T08:19:50.687Z,98594.08
2018-09-20T08:22:19.942Z,98587.16
2018-09-20T08:24:48.985Z,98586.84
2018-09-20T08:27:18.280Z,98578.98
2018-09-20T08:29:47.632Z,98580.52
2018-09-20T08:32:16.820Z,98582.04
2018-09-20T08:34:46.076Z,98578.31
2018-09-20T08:37:15.446Z,98582.04
2018-09-20T08:39:44.723Z,98572.59
2018-09-20T08:42:13.953Z,98569.04
2018-09-20T08:44:43.321Z,98569.98
2018-09-20T08:47:12.531Z,98575.34
2018-09-20T08:49:41.532Z,98567.72
2018-09-20T08:52:10.683Z,98570.25
2018-09-20T08:54:39.976Z,98557.47
2018-09-20T08:57:09.237Z,98558.67
2018-09-20T08:59:38.604Z,98550.66
2018-09-20T09:02:07.907Z,98548.69
2018-09-20T09:04:37.189Z,98553.31
2018-09-20T09:07:06.318Z,98547.11
2018-09-20T09:09:35.597Z,98540.49
2018-09-20T09:12:04.934Z,98532.97
2018-09-20T09:14:34.188Z,98530.02
2018-09-20T09:17:03.447Z,98536.86
2018-09-20T09:19:32.915Z,98538.06
2018-09-20T09:22:02.299Z,98535.05
2018-09-20T09:24:31.467Z,98531.26
2018-09-20T09:27:00.591Z,98526.89
2018-09-20T09:29:29.682Z,98524.43
2018-09-20T09:31:58.681Z,98518.85
2018-09-20T09:34:27.666Z,98518.99
2018-09-20T09:36:57.104Z,98516.41
2018-09-20T09:39:26.216Z,98515.66
2018-09-20T09:41:55.603Z,98506.34
2018-09-20T09:44:24.708Z,98508.50
2018-09-20T09:46:54.161Z,98499.87
2018-09-20T09:49:23.284Z,98493.14
2018-09-20T09:51:52.657Z,98495.91
2018-09-20T09:54:22.269Z,98483.20
2018-09-20T09:56:51.369Z,98487.63
2018-09-20T09:59:20.299Z,98480.70
2018-09-20T10:01:49.668Z,98487.20
2018-09-20T10:04:18.839Z,98474.46
2018-09-20T10:06:48.203Z,98475.45
2018-09-20T10:09:17.252Z,98468.16
2018-09-20T10:11:46.435Z,98464.91
2018-09-20T10:14:15.723Z,98473.22
2018-09-20T10:16:45.080Z,98472.64
2018-09-20T10:19:14.397Z,98468.77
2018-09-20T10:21:43.536Z,98469.20
2018-09-20T10:24:12.919Z,98468.06
2018-09-20T10:26:41.979Z,98461.59
2018-09-20T10:29:11.288Z,98458.81
2018-09-20T10:31:40.427Z,98456.44
2018-09-20T10:34:09.675Z,98454.66
2018-09-20T10:36:38.523Z,98454.02
2018-09-20T10:39:10.456Z,98449.62
2018-09-20T10:41:39.436Z,98442.81
2018-09-20T10:44:08.866Z,98451.66
2018-09-20T10:46:37.975Z,98450.64
2018-09-20T10:49:07.420Z,98443.59
2018-09-20T10:51:36.726Z,98442.98
2018-09-20T10:54:06.120Z,98441.77
2018-09-20T10:56:35.312Z,98436.88
2018-09-20T10:59:04.320Z,98433.25
2018-09-20T11:01:33.496Z,98437.08
2018-09-20T11:04:02.747Z,98427.53
2018-09-20T11:06:32.039Z,98430.70
2018-09-20T11:09:01.279Z,98428.56
2018-09-20T11:11:30.588Z,98423.65
2018-09-20T11:13:59.932Z,98423.03
2018-09-20T11:16:29.140Z,98423.98
2018-09-20T11:18:58.389Z,98426.34
2018-09-20T11:21:27.556Z,98428.66
2018-09-20T11:23:56.780Z,98430.24
2018-09-20T11:26:25.916Z,98424.54
2018-09-20T11:28:55.164Z,98410.47
2018-09-20T11:31:24.576Z,98408.88
2018-09-20T11:33:53.880Z,98408.17
2018-09-20T11:36:23.159Z,98411.50
2018-09-20T11:38:52.187Z,98401.49
2018-09-20T11:41:21.564Z,98398.00
2018-09-20T11:43:51.016Z,98401.77
2018-09-20T11:46:20.009Z,98393.77
2018-09-20T11:48:49.098Z,98391.53
2018-09-20T11:51:18.494Z,98388.95
2018-09-20T11:53:47.567Z,98391.49
2018-09-20T11:56:16.842Z,98390.48
2018-09-20T11:58:45.787Z,98392.23
2018-09-20T12:01:14.994Z,98396.16
2018-09-20T12:03:44.287Z,98391.20
2018-09-20T12:06:13.640Z,98390.00
2018-09-20T12:08:43.091Z,98388.21
2018-09-20T12:11:12.492Z,98387.28
2018-09-20T12:13:41.734Z,98378.16
2018-09-20T12:16:11.079Z,98381.21
2018-09-20T12:18:40.289Z,98382.34
2018-09-20T12:21:09.556Z,98370.83
2018-09-20T12:23:38.892Z,98376.56
2018-09-20T12:26:07.899Z,98367.86
2018-09-20T12:28:37.080Z,98365.69
2018-09-20T12:31:06.131Z,98372.36
2018-09-20T12:33:35.268Z,98364.59
2018-09-20T12:36:04.603Z,98373.27
2018-09-20T12:38:33.913Z,98371.61
2018-09-20T12:41:03.091Z,98353.61
2018-09-20T12:43:32.320Z,98356.72
2018-09-20T12:46:01.765Z,98348.95
2018-09-20T12:48:30.934Z,98361.93
2018-09-20T12:51:00.135Z,98345.13
2018-09-20T12:53:29.435Z,98349.34
2018-09-20T12:55:58.572Z,98337.47
2018-09-20T12:58:32.727Z,98336.78
2018-09-20T13:01:02.010Z,98343.82
2018-09-20T13:03:31.339Z,98340.53
2018-09-20T13:06:00.700Z,98341.59
2018-09-20T13:08:30.047Z,98338.33
2018-09-20T13:10:59.201Z,98334.03
2018-09-20T13:13:28.494Z,98337.28
2018-09-20T13:15:57.684Z,98332.03
2018-09-20T13:18:27.000Z,98323.66
2018-09-20T13:20:56.364Z,98329.80
2018-09-20T13:23:25.548Z,98319.38
2018-09-20T13:25:54.612Z,98314.75
2018-09-20T13:28:23.545Z,98313.44
2018-09-20T13:30:52.967Z,98309.34
2018-09-20T13:33:21.951Z,98308.40
2018-09-20T13:35:51.370Z,98299.84
2018-09-20T13:38:20.423Z,98301.13
2018-09-20T13:40:49.559Z,98301.32
2018-09-20T13:43:19.059Z,98292.39
2018-09-20T13:45:48.131Z,98291.29
2018-09-20T13:48:17.507Z,98297.00
2018-09-20T13:50:46.658Z,98300.47
2018-09-20T13:53:15.952Z,98291.52
2018-09-20T13:55:45.452Z,98283.41
2018-09-20T13:58:14.639Z,98281.20
2018-09-20T14:00:43.788Z,98277.95
2018-09-20T14:03:13.043Z,98276.07
2018-09-20T14:05:42.065Z,98267.05
2018-09-20T14:08:10.992Z,98266.16
2018-09-20T14:10:40.037Z,98266.62
2018-09-20T14:13:09.127Z,98264.48
2018-09-20T14:15:38.425Z,98266.36
2018-09-20T14:18:07.715Z,98264.59
2018-09-20T14:20:36.913Z,98261.78
2018-09-20T14:23:06.137Z,98259.77
2018-09-20T14:25:35.474Z,98260.09
2018-09-20T14:28:04.803Z,98260.39
2018-09-20T14:30:34.124Z,98261.94
2018-09-20T14:33:03.412Z,98260.20
2018-09-20T14:35:32.532Z,98259.27
2018-09-20T14:38:01.805Z,98259.64
2018-09-20T14:40:31.147Z,98263.69
2018-09-20T14:43:00.499Z,98262.28
2018-09-20T14:45:29.740Z,98261.44
2018-09-20T14:47:59.108Z,98257.16
2018-09-20T14:50:28.336Z,98259.73
2018-09-20T14:52:57.206Z,98255.01
2018-09-20T14:55:26.463Z,98264.38
2018-09-20T14:57:55.986Z,98261.12
2018-09-20T15:00:25.604Z,98257.77
2018-09-20T15:02:54.752Z,98255.66
2018-09-20T15:05:24.145Z,98256.62
2018-09-20T15:07:53.384Z,98259.15
2018-09-20T15:10:22.371Z,98261.16
2018-09-20T15:12:51.671Z,98257.24
2018-09-20T15:15:20.701Z,98260.34
2018-09-20T15:17:50.024Z,98256.84
2018-09-20T15:20:19.317Z,98257.16
2018-09-20T15:22:48.815Z,98256.46
2018-09-20T15:25:18.221Z,98254.81
2018-09-20T15:27:47.243Z,98256.08
2018-09-20T15:30:16.663Z,98259.20
2018-09-20T15:32:45.912Z,98262.39
2018-09-20T15:35:15.177Z,98263.73
2018-09-20T15:37:44.365Z,98258.64
2018-09-20T15:40:13.552Z,98263.58
2018-09-20T15:42:42.499Z,98257.16
2018-09-20T15:45:11.809Z,98267.44
2018-09-20T15:47:41.147Z,98260.14
2018-09-20T15:50:10.575Z,98265.91
2018-09-20T15:52:39.750Z,98269.59
2018-09-20T15:55:08.932Z,98266.92
2018-09-20T15:57:38.456Z,98264.78
2018-09-20T16:00:07.900Z,98269.16
2018-09-20T16:02:36.968Z,98272.75
2018-09-20T16:05:06.180Z,98269.70
2018-09-20T16:07:35.285Z,98273.97
2018-09-20T16:10:04.616Z,98275.05
2018-09-20T16:12:34.039Z,98275.45
2018-09-20T16:15:03.482Z,98278.48
2018-09-20T16:17:32.795Z,98274.64
2018-09-20T16:20:02.255Z,98275.49
2018-09-20T16:22:31.392Z,98277.36
2018-09-20T16:25:00.672Z,98274.05
2018-09-20T16:27:29.870Z,98276.55
2018-09-20T16:31:20.519Z,98274.29
2018-09-20T16:36:18.064Z,98286.45
2018-09-20T16:38:55.187Z,98293.73
2018-09-20T16:41:41.994Z,98296.20
2018-09-20T16:44:11.295Z,98290.50
2018-09-20T16:46:40.544Z,98287.79
2018-09-20T16:49:10.011Z,98287.09
2018-09-20T16:51:39.349Z,98293.73
2018-09-20T16:54:08.559Z,98288.49
2018-09-20T16:56:37.899Z,98299.41
2018-09-20T16:59:07.099Z,98304.62
2018-09-20T17:01:36.261Z,98297.95
2018-09-20T17:04:05.675Z,98295.63
2018-09-20T17:06:34.687Z,98297.12
2018-09-20T17:09:05.168Z,98296.38
2018-09-20T17:11:34.395Z,98293.11
2018-09-20T17:14:03.768Z,98300.80
2018-09-20T17:16:32.986Z,98303.56
2018-09-20T17:19:02.207Z,98301.25
2018-09-20T17:21:31.199Z,98303.56
2018-09-20T17:24:00.778Z,98296.88
2018-09-20T17:26:30.032Z,98310.11
2018-09-20T17:28:59.419Z,98305.59
2018-09-20T17:31:28.643Z,98316.30
2018-09-20T17:33:58.004Z,98318.54
2018-09-20T17:36:27.852Z,98325.93
2018-09-20T17:38:57.859Z,98326.59
2018-09-20T17:41:30.278Z,98331.13
2018-09-20T17:44:02.371Z,98337.53
2018-09-20T17:46:31.368Z,98346.26
2018-09-20T17:49:00.511Z,98343.30
2018-09-20T17:51:30.639Z,98351.86
2018-09-20T17:54:01.640Z,98347.92
2018-09-20T17:56:32.530Z,98347.86
2018-09-20T17:59:02.239Z,98350.09
2018-09-20T18:01:31.897Z,98352.98
2018-09-20T18:04:01.720Z,98356.30
2018-09-20T18:06:31.120Z,98361.11
2018-09-20T18:09:00.914Z,98360.61
2018-09-20T18:11:30.371Z,98362.17
2018-09-20T18:13:59.859Z,98362.77
2018-09-20T18:16:28.766Z,98356.45
2018-09-20T18:18:57.891Z,98360.80
2018-09-20T18:21:27.236Z,98362.20
2018-09-20T18:23:56.485Z,98361.71
2018-09-20T18:26:26.325Z,98368.82
2018-09-20T18:28:55.799Z,98364.64
2018-09-20T18:31:25.363Z,98367.34
2018-09-20T18:33:54.866Z,98362.84
2018-09-20T18:36:24.161Z,98374.27
2018-09-20T18:38:58.439Z,98374.45
2018-09-20T18:41:27.828Z,98383.53
2018-09-20T18:43:57.224Z,98379.56
2018-09-20T18:46:26.238Z,98380.83
2018-09-20T18:48:56.612Z,98391.83
2018-09-20T18:51:25.796Z,98383.82
2018-09-20T18:53:55.403Z,98379.61
2018-09-20T18:56:24.489Z,98381.05
2018-09-20T18:58:53.830Z,98378.97
2018-09-20T19:01:23.212Z,98386.89
2018-09-20T19:03:52.591Z,98380.44
2018-09-20T19:06:22.703Z,98377.58
2018-09-20T19:08:52.623Z,98377.94
2018-09-20T19:11:22.080Z,98371.98
2018-09-20T19:13:51.140Z,98370.45
2018-09-20T19:16:20.247Z,98375.31
2018-09-20T19:18:50.034Z,98374.65
2018-09-20T19:21:19.248Z,98374.92
2018-09-20T19:23:48.563Z,98374.34
2018-09-20T19:26:18.416Z,98372.18
2018-09-20T19:28:48.762Z,98375.67
2018-09-20T19:31:18.013Z,98376.83
2018-09-20T19:33:48.003Z,98386.51
2018-09-20T19:36:17.043Z,98381.64
2018-09-20T19:38:46.416Z,98384.97
2018-09-20T19:41:15.395Z,98377.70
2018-09-20T19:43:44.783Z,98378.65
2018-09-20T19:46:14.064Z,98382.25
2018-09-20T19:48:43.259Z,98378.24
2018-09-20T19:51:12.439Z,98386.78
2018-09-20T19:53:41.659Z,98386.20
2018-09-20T19:56:11.045Z,98390.77
2018-09-20T19:58:40.295Z,98396.58
2018-09-20T20:01:09.229Z,98397.70
2018-09-20T20:03:38.356Z,98404.77
2018-09-20T20:06:07.380Z,98404.80
2018-09-20T20:08:36.672Z,98405.54
2018-09-20T20:11:05.968Z,98407.16
2018-09-20T20:13:34.949Z,98408.55
2018-09-20T20:16:04.157Z,98406.88
2018-09-20T20:18:33.402Z,98406.09
2018-09-20T20:21:02.949Z,98413.12
2018-09-20T20:23:32.356Z,98415.44
2018-09-20T20:26:01.896Z,98411.66
2018-09-20T20:28:31.412Z,98412.53
2018-09-20T20:31:00.701Z,98413.98
2018-09-20T20:33:29.814Z,98410.75
2018-09-20T20:35:58.611Z,98406.44
2018-09-20T20:38:27.964Z,98416.20
2018-09-20T20:40:56.983Z,98412.45
2018-09-20T20:43:26.279Z,98416.66
2018-09-20T20:45:55.475Z,98409.97
2018-09-20T20:48:24.736Z,98419.97
2018-09-20T20:50:54.035Z,98419.69
2018-09-20T20:53:22.944Z,98420.78
2018-09-20T20:55:52.120Z,98419.84
2018-09-20T20:58:21.270Z,98418.74
2018-09-20T21:00:50.666Z,98416.98
2018-09-20T21:03:19.902Z,98416.05
2018-09-20T21:05:48.861Z,98414.75
2018-09-20T21:08:18.247Z,98415.87
2018-09-20T21:10:47.457Z,98413.70
2018-09-20T21:13:16.738Z,98416.45
2018-09-20T21:15:46.103Z,98419.24
2018-09-20T21:18:15.563Z,98409.59
2018-09-20T21:20:44.904Z,98412.62
2018-09-20T21:23:14.107Z,98405.78
2018-09-20T21:25:43.256Z,98413.66
2018-09-20T21:28:12.496Z,98412.08
2018-09-20T21:30:41.497Z,98407.95
2018-09-20T21:33:10.841Z,98406.86
2018-09-20T21:35:39.975Z,98404.05
2018-09-20T21:38:08.981Z,98400.77
2018-09-20T21:40:38.095Z,98396.50
2018-09-20T21:43:07.207Z,98398.58
2018-09-20T21:45:36.191Z,98398.58
2018-09-20T21:48:05.704Z,98402.80
2018-09-20T21:50:34.833Z,98400.56
2018-09-20T21:53:04.156Z,98399.00
2018-09-20T21:55:33.071Z,98400.94
2018-09-20T21:58:02.184Z,98395.02
2018-09-20T22:00:31.520Z,98402.18
2018-09-20T22:03:03.607Z,98399.53
2018-09-20T22:05:34.111Z,98401.10
2018-09-20T22:08:03.328Z,98409.89
2018-09-20T22:10:32.852Z,98403.52
2018-09-20T22:13:02.152Z,98411.00
2018-09-20T22:15:31.364Z,98401.40
2018-09-20T22:18:00.676Z,98399.78
2018-09-20T22:20:31.213Z,98409.77
2018-09-20T22:23:00.523Z,98403.67
2018-09-20T22:25:29.755Z,98404.67
2018-09-20T22:27:58.995Z,98402.18
2018-09-20T22:30:28.308Z,98401.09
2018-09-20T22:32:57.652Z,98398.91
2018-09-20T22:35:26.815Z,98401.80
2018-09-20T22:37:56.191Z,98399.77
2018-09-20T22:40:25.256Z,98400.64
2018-09-20T22:42:54.255Z,98403.83
2018-09-20T22:45:23.416Z,98402.04
2018-09-20T22:47:52.631Z,98408.74
2018-09-20T22:50:21.603Z,98398.61
2018-09-20T22:52:50.668Z,98405.02
2018-09-20T22:55:19.928Z,98409.88
2018-09-20T22:57:49.136Z,98412.32
2018-09-20T23:00:23.355Z,98419.23
2018-09-20T23:02:54.116Z,98418.41
2018-09-20T23:05:23.423Z,98419.86
2018-09-20T23:07:52.663Z,98415.59
2018-09-20T23:10:21.857Z,98423.79
2018-09-20T23:12:51.047Z,98419.50
2018-09-20T23:15:20.348Z,98419.86
2018-09-20T23:17:49.311Z,98425.06
2018-09-20T23:20:18.759Z,98418.84
2018-09-20T23:22:47.786Z,98422.39
2018-09-20T23:25:16.761Z,98427.20
2018-09-20T23:27:45.984Z,98421.72
2018-09-20T23:30:15.432Z,98417.83
2018-09-20T23:32:44.663Z,98410.59
2018-09-20T23:35:14.019Z,98407.31
2018-09-20T23:37:43.372Z,98412.77
2018-09-20T23:40:12.570Z,98407.69
2018-09-20T23:42:41.639Z,98405.05
2018-09-20T23:45:10.623Z,98401.76
2018-09-20T23:47:39.955Z,98403.28
2018-09-20T23:50:09.247Z,98403.16
2018-09-20T23:52:38.608Z,98400.78
2018-09-20T23:55:07.592Z,98399.87
2018-09-20T23:57:36.980Z,98402.75
